Time;durP1;ratioP1;P1;durP2;ratioP2;P2;SDS_P1;SDS_P2;PMS_P1;PMS_P2;Temp;Humidity;BMP_temperature;BMP_pressure;BME280_temperature;BME280_humidity;BME280_pressure;Samples;Min_cycle;Max_cycle;Signal;HPM_P1;HPM_P2
2022/11/26 00:00:55;;;;;;;2.17;1.80;;;;;;;5.53;nan;-23971.06;5032452;28;20175;-78
2022/11/26 00:03:20;;;;;;;1.97;1.87;;;;;;;5.54;nan;-23971.34;5032636;28;20317;-78
2022/11/26 00:05:49;;;;;;;2.33;2.13;;;;;;;5.59;nan;-23972.91;5033821;28;20588;-78
2022/11/26 00:08:24;;;;;;;2.13;1.93;;;;;;;5.46;nan;-23969.06;5039327;28;20191;-78
2022/11/26 00:10:52;;;;;;;4.43;2.50;;;;;;;5.07;nan;-23958.25;5017492;28;20225;-78
2022/11/26 00:13:24;;;;;;;2.47;2.00;;;;;;;5.12;nan;-23959.53;5040115;28;20698;-78
2022/11/26 00:15:50;;;;;;;1.93;1.83;;;;;;;4.67;nan;-23946.88;5032307;28;20222;-78
2022/11/26 00:18:17;;;;;;;1.83;1.73;;;;;;;4.97;nan;-23955.41;5032257;28;20233;-78
2022/11/26 00:20:43;;;;;;;2.03;1.90;;;;;;;5.02;nan;-23956.69;5032620;28;20175;-78
2022/11/26 00:23:18;;;;;;;2.47;2.13;;;;;;;5.03;nan;-23957.13;5032014;28;20274;-78
2022/11/26 00:25:46;;;;;;;1.93;1.60;;;;;;;4.63;nan;-23945.75;5033165;28;20166;-78
2022/11/26 00:28:23;;;;;;;3.50;2.60;;;;;;;4.94;nan;-23954.56;5032988;28;20650;-78
2022/11/26 00:30:49;;;;;;;1.83;1.73;;;;;;;4.86;nan;-23952.44;5033734;28;20217;-78
2022/11/26 00:33:14;;;;;;;3.10;1.90;;;;;;;4.74;nan;-23949.00;5033600;28;20637;-78
2022/11/26 00:35:40;;;;;;;2.30;2.10;;;;;;;4.82;nan;-23951.16;5032050;28;20175;-78
2022/11/26 00:38:09;;;;;;;4.23;2.30;;;;;;;4.74;nan;-23949.00;5031928;28;20187;-78
2022/11/26 00:40:35;;;;;;;2.20;2.00;;;;;;;4.83;nan;-23951.44;5031674;28;20178;-78
2022/11/26 00:43:00;;;;;;;2.97;2.43;;;;;;;4.74;nan;-23949.00;5033238;28;20172;-78
2022/11/26 00:45:29;;;;;;;2.47;2.03;;;;;;;4.85;nan;-23952.00;5032941;28;20176;-78
2022/11/26 00:47:56;;;;;;;3.03;2.07;;;;;;;4.60;nan;-23944.88;5033056;28;20702;-78
2022/11/26 00:50:25;;;;;;;2.00;1.80;;;;;;;4.78;nan;-23950.00;5031690;28;20221;-78
2022/11/26 00:52:54;;;;;;;2.07;1.93;;;;;;;4.89;nan;-23953.13;5031021;28;20203;-78
2022/11/26 00:55:32;;;;;;;2.00;1.80;;;;;;;4.49;nan;-23941.75;5032084;28;20202;-78
2022/11/26 00:57:58;;;;;;;2.67;2.23;;;;;;;4.95;nan;-23954.84;5031673;28;20167;-78
2022/11/26 01:00:26;;;;;;;2.00;1.90;;;;;;;4.60;nan;-23945.03;5033209;28;20250;-78
2022/11/26 01:02:52;;;;;;;2.17;1.83;;;;;;;4.99;nan;-23956.00;5032762;28;20313;-78
2022/11/26 01:05:18;;;;;;;2.63;1.83;;;;;;;4.87;nan;-23952.56;5031422;28;20245;-78
2022/11/26 01:07:44;;;;;;;1.87;1.60;;;;;;;5.01;nan;-23956.41;5031868;28;20267;-78
2022/11/26 01:10:20;;;;;;;3.50;2.40;;;;;;;4.91;nan;-23953.72;5031352;28;20337;-78
2022/11/26 01:12:46;;;;;;;1.90;1.73;;;;;;;4.88;nan;-23953.00;5032057;28;20190;-78
2022/11/26 01:15:12;;;;;;;1.90;1.80;;;;;;;4.88;nan;-23953.00;5030753;28;20217;-78
2022/11/26 01:17:38;;;;;;;1.90;1.80;;;;;;;4.82;nan;-23951.16;5032497;28;20182;-78
2022/11/26 01:20:19;;;;;;;3.03;2.23;;;;;;;4.65;nan;-23946.31;5032307;28;20179;-78
2022/11/26 01:22:44;;;;;;;3.27;2.00;;;;;;;4.53;nan;-23942.91;5031077;28;20183;-78
2022/11/26 01:25:10;;;;;;;2.23;2.03;;;;;;;4.52;nan;-23942.75;5031381;28;20183;-78
2022/11/26 01:27:35;;;;;;;3.17;2.17;;;;;;;4.37;nan;-23938.63;5031113;28;20183;-80
2022/11/26 01:30:01;;;;;;;3.33;2.50;;;;;;;4.64;nan;-23946.16;5031217;28;20182;-78
2022/11/26 01:32:26;;;;;;;4.40;2.00;;;;;;;4.79;nan;-23950.28;5032225;28;20241;-80
2022/11/26 01:34:51;;;;;;;2.23;2.03;;;;;;;4.87;nan;-23952.56;5032383;28;20168;-80
2022/11/26 01:37:17;;;;;;;2.30;2.10;;;;;;;4.64;nan;-23946.03;5032387;28;20201;-80
2022/11/26 01:39:42;;;;;;;3.03;1.80;;;;;;;4.53;nan;-23942.91;5032268;28;20183;-79
2022/11/26 01:42:36;;;;;;;1.90;1.80;;;;;;;4.26;nan;-23935.50;5031159;28;20183;-80
2022/11/26 01:45:02;;;;;;;3.20;2.60;;;;;;;4.30;nan;-23936.50;5030924;28;20183;-80
2022/11/26 01:47:29;;;;;;;3.90;2.57;;;;;;;4.26;nan;-23935.50;5032266;28;20255;-80
2022/11/26 01:50:31;;;;;;;3.63;2.33;;;;;;;4.27;nan;-23935.78;5031406;28;20188;-79
2022/11/26 01:53:10;;;;;;;2.77;2.17;;;;;;;4.13;nan;-23931.78;5029324;28;20678;-78
2022/11/26 01:55:40;;;;;;;3.10;1.93;;;;;;;4.06;nan;-23929.66;5030023;28;20199;-78
2022/11/26 01:58:10;;;;;;;2.00;1.83;;;;;;;3.77;nan;-23921.53;5030324;28;20638;-78
2022/11/26 02:00:36;;;;;;;2.37;2.17;;;;;;;4.21;nan;-23933.94;5030382;28;20174;-78
2022/11/26 02:03:03;;;;;;;3.20;2.10;;;;;;;3.87;nan;-23924.38;5029988;28;20222;-78
2022/11/26 02:05:37;;;;;;;1.57;1.47;;;;;;;4.11;nan;-23931.22;5030291;28;20187;-78
2022/11/26 02:08:03;;;;;;;2.07;1.77;;;;;;;4.00;nan;-23928.22;5029622;28;20262;-78
2022/11/26 02:10:29;;;;;;;1.90;1.60;;;;;;;4.18;nan;-23933.22;5030457;28;20175;-78
2022/11/26 02:12:55;;;;;;;2.83;2.27;;;;;;;3.96;nan;-23926.94;5029875;28;20218;-78
2022/11/26 02:15:26;;;;;;;2.57;2.37;;;;;;;3.94;nan;-23926.53;5030863;28;20194;-78
2022/11/26 02:18:01;;;;;;;2.73;1.97;;;;;;;3.91;nan;-23925.66;5030552;28;20229;-78
2022/11/26 02:20:48;;;;;;;2.40;2.07;;;;;;;3.86;nan;-23924.25;5030348;28;20179;-78
2022/11/26 02:23:41;;;;;;;2.13;1.93;;;;;;;3.73;nan;-23920.38;5031500;28;20183;-78
2022/11/26 02:26:39;;;;;;;2.27;1.83;;;;;;;3.59;nan;-23916.41;5034995;28;20252;-78
2022/11/26 02:29:13;;;;;;;2.33;2.07;;;;;;;3.32;nan;-23909.00;5035459;28;20183;-78
2022/11/26 02:31:51;;;;;;;2.13;1.93;;;;;;;3.26;nan;-23907.28;5034166;28;20190;-78
2022/11/26 02:34:25;;;;;;;2.43;2.23;;;;;;;3.55;nan;-23915.53;5034239;28;20238;-78
2022/11/26 02:37:00;;;;;;;2.10;1.53;;;;;;;3.48;nan;-23913.41;5034362;28;20619;-78
2022/11/26 02:39:28;;;;;;;4.87;2.50;;;;;;;3.35;nan;-23909.84;5035558;28;20660;-78
2022/11/26 02:41:59;;;;;;;3.33;2.23;;;;;;;2.46;nan;-23884.75;5034093;28;20179;-78
2022/11/26 02:44:29;;;;;;;2.10;1.83;;;;;;;3.31;nan;-23908.72;5034072;28;20167;-78
2022/11/26 02:47:17;;;;;;;3.33;2.43;;;;;;;3.31;nan;-23908.56;5034376;28;20642;-78
2022/11/26 02:49:46;;;;;;;3.40;2.30;;;;;;;3.01;nan;-23900.16;5035072;28;20305;-78
2022/11/26 02:52:13;;;;;;;3.63;2.17;;;;;;;3.16;nan;-23904.28;5033679;28;20194;-78
2022/11/26 02:54:40;;;;;;;2.13;1.83;;;;;;;2.90;nan;-23897.00;5034921;28;20178;-78
2022/11/26 02:57:10;;;;;;;1.90;1.80;;;;;;;3.00;nan;-23900.00;5033807;28;20202;-78
2022/11/26 02:59:37;;;;;;;2.30;2.03;;;;;;;3.01;nan;-23900.16;5033510;28;20183;-78
2022/11/26 03:02:14;;;;;;;2.97;2.33;;;;;;;3.18;nan;-23905.00;5034613;28;20251;-78
2022/11/26 03:04:46;;;;;;;5.00;2.37;;;;;;;3.04;nan;-23901.16;5034455;28;20162;-78
2022/11/26 03:07:13;;;;;;;2.73;2.00;;;;;;;3.01;nan;-23900.16;5033755;28;20190;-78
2022/11/26 03:09:51;;;;;;;2.67;2.30;;;;;;;2.88;nan;-23896.44;5033794;28;20210;-78
2022/11/26 03:12:17;;;;;;;2.10;1.90;;;;;;;3.06;nan;-23901.72;5033290;28;20573;-78
2022/11/26 03:14:43;;;;;;;2.80;2.10;;;;;;;3.01;nan;-23900.16;5033976;28;20178;-78
2022/11/26 03:17:08;;;;;;;2.83;1.70;;;;;;;2.90;nan;-23897.16;5033402;28;20182;-78
2022/11/26 03:19:34;;;;;;;2.67;2.17;;;;;;;2.44;nan;-23884.16;5033212;28;20179;-78
2022/11/26 03:21:59;;;;;;;3.17;2.87;;;;;;;2.85;nan;-23895.59;5032728;28;20175;-78
2022/11/26 03:24:25;;;;;;;3.50;2.30;;;;;;;2.92;nan;-23897.72;5033270;28;20182;-78
2022/11/26 03:26:50;;;;;;;7.83;2.40;;;;;;;2.61;nan;-23888.88;5033320;28;20265;-78
2022/11/26 03:29:16;;;;;;;3.53;2.37;;;;;;;2.56;nan;-23887.59;5032749;28;20181;-78
2022/11/26 03:31:41;;;;;;;3.53;2.17;;;;;;;2.58;nan;-23888.03;5033430;28;20203;-78
2022/11/26 03:34:07;;;;;;;2.23;2.07;;;;;;;2.73;nan;-23892.31;5032762;28;20308;-78
2022/11/26 03:36:32;;;;;;;1.73;1.63;;;;;;;2.52;nan;-23886.44;5032130;28;20178;-78
2022/11/26 03:38:58;;;;;;;2.30;2.07;;;;;;;2.83;nan;-23895.00;5036127;28;20196;-78
2022/11/26 03:41:23;;;;;;;2.33;2.13;;;;;;;2.73;nan;-23892.16;5040974;28;20182;-78
2022/11/26 03:43:49;;;;;;;2.37;2.17;;;;;;;2.53;nan;-23886.75;5039326;28;20265;-78
2022/11/26 03:46:14;;;;;;;3.03;1.83;;;;;;;2.34;nan;-23881.31;5040257;28;20186;-78
2022/11/26 03:48:40;;;;;;;2.17;1.83;;;;;;;2.40;nan;-23883.03;5027514;28;20201;-78
2022/11/26 03:51:05;;;;;;;2.50;2.23;;;;;;;2.55;nan;-23887.16;5039068;28;20524;-77
2022/11/26 03:53:31;;;;;;;2.77;2.43;;;;;;;2.71;nan;-23891.59;5041130;28;20241;-78
2022/11/26 03:55:57;;;;;;;2.73;2.53;;;;;;;2.55;nan;-23887.31;5028999;28;20229;-78
2022/11/26 03:58:22;;;;;;;3.90;2.17;;;;;;;2.37;nan;-23882.16;5032528;28;20189;-78
2022/11/26 04:00:49;;;;;;;2.67;2.20;;;;;;;2.56;nan;-23887.59;5034977;28;20197;-78
2022/11/26 04:03:15;;;;;;;3.00;1.93;;;;;;;2.43;nan;-23883.75;5038434;28;20245;-78
2022/11/26 04:05:40;;;;;;;2.00;1.77;;;;;;;2.34;nan;-23881.16;5041504;28;20201;-78
2022/11/26 04:08:06;;;;;;;4.10;1.80;;;;;;;2.40;nan;-23882.88;5039554;28;20188;-78
2022/11/26 04:10:33;;;;;;;3.97;2.53;;;;;;;2.23;nan;-23878.31;5021341;28;20181;-78
2022/11/26 04:12:59;;;;;;;8.97;2.50;;;;;;;2.40;nan;-23883.03;5039515;28;20198;-78
2022/11/26 04:15:24;;;;;;;2.60;1.73;;;;;;;2.39;nan;-23882.75;5034354;28;20185;-78
2022/11/26 04:17:50;;;;;;;2.13;1.97;;;;;;;2.46;nan;-23884.59;5039923;28;20186;-78
2022/11/26 04:20:15;;;;;;;2.47;2.27;;;;;;;2.51;nan;-23886.16;5034063;28;20241;-78
2022/11/26 04:22:41;;;;;;;4.63;2.00;;;;;;;2.32;nan;-23880.75;5032182;28;20187;-78
2022/11/26 04:25:07;;;;;;;3.53;2.30;;;;;;;2.25;nan;-23878.59;5039987;28;20178;-78
2022/11/26 04:27:32;;;;;;;2.93;2.63;;;;;;;2.32;nan;-23880.75;5038435;28;20205;-78
2022/11/26 04:29:58;;;;;;;3.37;2.60;;;;;;;2.42;nan;-23883.59;5036412;28;20198;-78
2022/11/26 04:32:24;;;;;;;7.90;2.30;;;;;;;2.37;nan;-23882.16;5040809;28;20186;-78
2022/11/26 04:34:50;;;;;;;3.40;2.27;;;;;;;2.46;nan;-23884.75;5034484;28;20233;-78
2022/11/26 04:37:15;;;;;;;2.33;2.10;;;;;;;2.17;nan;-23876.47;5039173;28;20194;-78
2022/11/26 04:39:41;;;;;;;2.03;1.93;;;;;;;2.22;nan;-23878.03;5040330;28;20217;-78
2022/11/26 04:42:06;;;;;;;3.07;2.57;;;;;;;2.16;nan;-23876.16;5041208;28;20241;-78
2022/11/26 04:44:32;;;;;;;2.80;2.50;;;;;;;2.10;nan;-23874.59;5033099;28;20252;-78
2022/11/26 04:46:57;;;;;;;3.40;2.10;;;;;;;2.12;nan;-23875.03;5036602;28;20193;-78
2022/11/26 04:49:23;;;;;;;3.23;2.60;;;;;;;2.05;nan;-23873.03;5026253;28;20206;-78
2022/11/26 04:51:48;;;;;;;3.23;2.20;;;;;;;1.99;nan;-23871.31;5038773;28;20314;-78
2022/11/26 04:54:14;;;;;;;2.53;2.20;;;;;;;1.86;nan;-23867.59;5034191;28;20223;-78
2022/11/26 04:56:39;;;;;;;2.67;1.83;;;;;;;1.94;nan;-23870.03;5037627;28;20187;-78
2022/11/26 04:59:06;;;;;;;5.13;2.97;;;;;;;2.11;nan;-23874.88;5036134;28;20191;-78
2022/11/26 05:01:31;;;;;;;2.80;2.53;;;;;;;2.05;nan;-23873.03;5033305;28;20231;-78
2022/11/26 05:03:57;;;;;;;3.53;2.77;;;;;;;2.02;nan;-23872.31;5036214;28;20547;-78
2022/11/26 05:06:22;;;;;;;3.60;2.53;;;;;;;1.79;nan;-23865.75;5021588;28;20241;-78
2022/11/26 05:08:48;;;;;;;3.10;2.43;;;;;;;1.63;nan;-23861.31;5027888;28;20232;-78
2022/11/26 05:11:13;;;;;;;2.20;2.00;;;;;;;1.87;nan;-23868.03;5040904;28;20187;-78
2022/11/26 05:13:39;;;;;;;2.37;2.17;;;;;;;1.77;nan;-23865.31;5026015;28;20650;-78
2022/11/26 05:16:04;;;;;;;5.50;3.00;;;;;;;1.83;nan;-23866.75;5033154;28;20676;-78
2022/11/26 05:18:30;;;;;;;2.03;1.90;;;;;;;1.91;nan;-23869.16;5039313;28;20197;-78
2022/11/26 05:20:55;;;;;;;2.40;2.20;;;;;;;2.14;nan;-23875.59;5039249;28;20218;-78
2022/11/26 05:23:21;;;;;;;4.60;2.43;;;;;;;2.05;nan;-23873.16;5013503;28;20191;-78
2022/11/26 05:25:49;;;;;;;2.60;2.40;;;;;;;2.13;nan;-23875.31;5029439;28;20221;-78
2022/11/26 05:28:15;;;;;;;3.17;2.00;;;;;;;1.95;nan;-23870.16;5037429;28;20188;-78
2022/11/26 05:30:40;;;;;;;2.80;2.27;;;;;;;1.80;nan;-23866.03;5039118;28;20177;-78
2022/11/26 05:33:06;;;;;;;3.50;2.80;;;;;;;2.01;nan;-23871.88;5031199;28;20208;-78
2022/11/26 05:35:31;;;;;;;2.87;2.13;;;;;;;1.86;nan;-23867.75;5033740;28;20179;-77
2022/11/26 05:37:57;;;;;;;4.30;2.80;;;;;;;1.77;nan;-23865.16;5035428;28;20217;-78
2022/11/26 05:40:22;;;;;;;3.03;2.53;;;;;;;1.65;nan;-23861.88;5033228;28;21360;-78
2022/11/26 05:42:48;;;;;;;2.30;2.10;;;;;;;1.80;nan;-23866.03;5033166;28;20650;-78
2022/11/26 05:45:16;;;;;;;4.77;2.80;;;;;;;1.72;nan;-23863.75;5048659;28;20253;-78
2022/11/26 05:47:42;;;;;;;2.13;1.87;;;;;;;1.96;nan;-23870.47;5034745;28;20209;-78
2022/11/26 05:50:08;;;;;;;2.93;2.40;;;;;;;1.95;nan;-23870.31;5028988;28;20198;-78
2022/11/26 05:52:34;;;;;;;4.93;3.00;;;;;;;2.15;nan;-23875.88;5031747;28;20216;-78
2022/11/26 05:55:00;;;;;;;2.67;2.47;;;;;;;2.20;nan;-23877.31;5035247;28;20193;-78
2022/11/26 05:57:25;;;;;;;4.70;3.27;;;;;;;2.21;nan;-23877.75;5032428;28;20187;-78
2022/11/26 05:59:51;;;;;;;4.60;2.80;;;;;;;2.11;nan;-23874.88;5031797;28;20186;-79
2022/11/26 06:02:17;;;;;;;3.53;2.57;;;;;;;2.36;nan;-23881.75;5032873;28;20236;-78
2022/11/26 06:04:42;;;;;;;2.87;2.43;;;;;;;2.02;nan;-23872.16;5034417;28;20289;-78
2022/11/26 06:07:08;;;;;;;3.13;2.90;;;;;;;2.66;nan;-23890.44;5033115;28;20657;-78
2022/11/26 06:09:35;;;;;;;3.07;2.40;;;;;;;2.62;nan;-23889.31;5032075;28;20183;-78
2022/11/26 06:12:01;;;;;;;4.27;2.13;;;;;;;2.45;nan;-23884.31;5034213;28;20191;-78
2022/11/26 06:14:27;;;;;;;3.03;2.60;;;;;;;2.35;nan;-23881.47;5024502;28;20589;-78
2022/11/26 06:16:52;;;;;;;3.07;2.73;;;;;;;2.46;nan;-23884.59;5032789;28;20194;-79
2022/11/26 06:19:17;;;;;;;4.13;3.27;;;;;;;2.55;nan;-23887.31;5035525;28;20229;-80
2022/11/26 06:21:43;;;;;;;3.30;2.93;;;;;;;2.67;nan;-23890.72;5033419;28;20568;-80
2022/11/26 06:24:08;;;;;;;2.77;2.57;;;;;;;2.96;nan;-23898.72;5032569;28;20233;-80
2022/11/26 06:26:34;;;;;;;2.37;2.17;;;;;;;2.61;nan;-23888.88;5026318;28;20189;-80
2022/11/26 06:29:00;;;;;;;2.90;2.17;;;;;;;2.88;nan;-23896.59;5036114;28;20187;-80
2022/11/26 06:31:25;;;;;;;3.17;2.87;;;;;;;2.71;nan;-23891.59;5033292;28;20225;-80
2022/11/26 06:33:55;;;;;;;3.30;2.70;;;;;;;2.36;nan;-23881.88;5032823;28;20643;-80
2022/11/26 06:36:21;;;;;;;3.63;2.97;;;;;;;2.96;nan;-23898.72;5034139;28;20233;-80
2022/11/26 06:38:46;;;;;;;3.03;2.67;;;;;;;1.93;nan;-23869.75;5034999;28;20215;-80
2022/11/26 06:41:12;;;;;;;2.83;2.53;;;;;;;3.47;nan;-23913.13;5032302;28;20620;-80
2022/11/26 06:43:37;;;;;;;2.73;2.53;;;;;;;3.39;nan;-23910.97;5033865;28;20515;-80
2022/11/26 06:46:05;;;;;;;4.33;2.70;;;;;;;3.64;nan;-23917.81;5032080;28;20182;-79
2022/11/26 06:48:32;;;;;;;3.77;2.53;;;;;;;3.81;nan;-23922.66;5033388;28;20191;-79
2022/11/26 06:51:03;;;;;;;4.87;2.83;;;;;;;3.93;nan;-23926.22;5032342;28;20241;-78
2022/11/26 06:53:29;;;;;;;3.27;2.83;;;;;;;3.93;nan;-23926.09;5030905;28;20635;-78
2022/11/26 06:56:04;;;;;;;3.30;2.93;;;;;;;4.20;nan;-23933.78;5032879;28;20297;-77
2022/11/26 06:58:35;;;;;;;3.53;3.20;;;;;;;4.25;nan;-23935.22;5034113;28;20174;-78
2022/11/26 07:01:13;;;;;;;3.33;2.80;;;;;;;4.28;nan;-23936.06;5050270;28;20194;-78
2022/11/26 07:03:39;;;;;;;5.87;3.80;;;;;;;4.80;nan;-23950.56;5033239;28;20195;-78
2022/11/26 07:06:04;;;;;;;4.97;3.07;;;;;;;5.12;nan;-23959.69;5033865;28;20234;-78
2022/11/26 07:08:30;;;;;;;7.43;3.50;;;;;;;5.18;nan;-23961.38;5050311;28;20215;-78
2022/11/26 07:10:59;;;;;;;4.83;3.37;;;;;;;5.33;nan;-23965.50;5034034;28;20183;-79
2022/11/26 07:13:25;;;;;;;7.03;3.50;;;;;;;5.05;nan;-23957.69;5036762;28;20203;-78
2022/11/26 07:15:50;;;;;;;3.20;2.80;;;;;;;5.25;nan;-23963.38;5027999;28;20185;-79
2022/11/26 07:18:16;;;;;;;4.27;2.67;;;;;;;5.58;nan;-23972.47;5042983;28;20261;-79
2022/11/26 07:20:41;;;;;;;4.00;3.27;;;;;;;5.86;nan;-23980.44;5021542;28;20184;-80
2022/11/26 07:23:06;;;;;;;3.23;2.67;;;;;;;6.13;nan;-23987.97;5032796;28;20683;-80
2022/11/26 07:25:32;;;;;;;7.20;3.00;;;;;;;6.06;nan;-23986.13;5037223;28;20642;-80
2022/11/26 07:27:57;;;;;;;4.73;4.13;;;;;;;6.58;nan;-24000.75;5038583;28;20187;-80
2022/11/26 07:30:23;;;;;;;3.93;2.70;;;;;;;6.61;nan;-24001.47;5020255;28;20187;-80
2022/11/26 07:32:48;;;;;;;3.80;2.63;;;;;;;6.90;nan;-24009.53;5038472;28;20289;-80
2022/11/26 07:35:13;;;;;;;5.63;2.90;;;;;;;7.08;nan;-24014.66;5038071;28;20183;-80
2022/11/26 07:37:39;;;;;;;3.87;2.83;;;;;;;6.74;nan;-24005.16;5047793;28;20218;-67
2022/11/26 07:40:05;;;;;;;4.83;3.10;;;;;;;7.21;nan;-24018.34;5030736;28;20578;-73
2022/11/26 07:42:32;;;;;;;3.13;2.37;;;;;;;7.42;nan;-24024.28;5033130;28;20183;-72
2022/11/26 07:44:58;;;;;;;4.80;3.03;;;;;;;7.40;nan;-24023.72;5033334;28;20562;-75
2022/11/26 07:47:24;;;;;;;5.47;3.47;;;;;;;7.09;nan;-24014.94;5032849;28;20179;-73
2022/11/26 07:49:49;;;;;;;8.43;3.53;;;;;;;7.20;nan;-24017.91;5033790;28;20160;-73
2022/11/26 07:52:15;;;;;;;6.43;3.40;;;;;;;5.69;nan;-23975.59;5034040;28;20183;-73
2022/11/26 07:54:40;;;;;;;4.43;2.97;;;;;;;7.36;nan;-24022.44;5033866;28;20286;-72
2022/11/26 07:57:06;;;;;;;3.97;3.00;;;;;;;7.82;nan;-24035.47;5034124;28;20631;-71
2022/11/26 07:59:31;;;;;;;5.57;3.13;;;;;;;7.48;nan;-24025.84;5033628;28;20610;-72
2022/11/26 08:01:59;;;;;;;4.17;2.67;;;;;;;7.70;nan;-24031.94;5033153;28;20258;-72
2022/11/26 08:04:24;;;;;;;4.00;2.90;;;;;;;7.76;nan;-24033.78;5033995;28;20254;-69
2022/11/26 08:06:50;;;;;;;5.80;2.83;;;;;;;8.00;nan;-24040.59;5033587;28;20179;-69
2022/11/26 08:09:15;;;;;;;4.43;2.43;;;;;;;7.75;nan;-24033.38;5033822;28;20160;-70
2022/11/26 08:11:41;;;;;;;3.13;2.73;;;;;;;8.26;nan;-24047.81;5033968;28;20197;-70
2022/11/26 08:14:10;;;;;;;3.00;2.50;;;;;;;8.00;nan;-24040.44;5039569;28;20290;-70
2022/11/26 08:16:35;;;;;;;3.30;2.50;;;;;;;8.52;nan;-24055.03;5039703;28;20187;-70
2022/11/26 08:19:05;;;;;;;3.57;2.67;;;;;;;8.24;nan;-24047.09;5015652;28;20183;-69
2022/11/26 08:21:30;;;;;;;3.10;2.27;;;;;;;8.39;nan;-24051.50;5033407;28;20167;-69
2022/11/26 08:23:56;;;;;;;3.03;2.53;;;;;;;8.52;nan;-24055.03;5031623;28;20216;-69
2022/11/26 08:26:23;;;;;;;4.03;2.70;;;;;;;8.27;nan;-24048.09;5033577;28;20179;-69
2022/11/26 08:28:50;;;;;;;4.93;2.93;;;;;;;8.85;nan;-24064.22;5033876;28;20203;-69
2022/11/26 08:31:16;;;;;;;2.77;2.40;;;;;;;8.50;nan;-24054.47;5032781;28;20171;-69
2022/11/26 08:33:42;;;;;;;2.70;2.50;;;;;;;8.97;nan;-24067.63;5032951;28;20265;-70
2022/11/26 08:36:08;;;;;;;4.43;2.90;;;;;;;9.01;nan;-24068.63;5031975;28;20163;-69
2022/11/26 08:38:35;;;;;;;3.77;2.80;;;;;;;9.10;nan;-24071.16;5033117;28;20475;-69
2022/11/26 08:41:05;;;;;;;3.27;2.57;;;;;;;8.87;nan;-24064.78;5032545;28;20546;-70
2022/11/26 08:43:33;;;;;;;4.20;2.97;;;;;;;9.02;nan;-24068.91;5033318;28;20174;-69
2022/11/26 08:45:59;;;;;;;5.67;3.10;;;;;;;9.01;nan;-24068.75;5033013;28;20175;-70
2022/11/26 08:48:26;;;;;;;3.20;2.30;;;;;;;6.69;nan;-24003.72;5032852;28;20172;-69
2022/11/26 08:51:00;;;;;;;4.50;2.87;;;;;;;9.07;nan;-24070.31;5032647;28;20178;-69
2022/11/26 08:53:27;;;;;;;4.20;2.33;;;;;;;9.25;nan;-24075.41;5032534;28;20192;-69
2022/11/26 08:55:52;;;;;;;5.93;3.13;;;;;;;9.43;nan;-24080.34;5032578;28;20176;-69
2022/11/26 08:58:18;;;;;;;4.17;2.50;;;;;;;9.75;nan;-24089.53;5032364;28;20182;-69
2022/11/26 09:00:43;;;;;;;2.83;2.20;;;;;;;9.71;nan;-24088.41;5032832;28;20242;-69
2022/11/26 09:03:09;;;;;;;4.20;2.67;;;;;;;9.61;nan;-24085.44;5031065;28;20318;-69
2022/11/26 09:05:34;;;;;;;5.37;2.60;;;;;;;9.48;nan;-24081.91;5032961;28;20627;-69
2022/11/26 09:08:00;;;;;;;4.53;3.43;;;;;;;10.09;nan;-24099.00;5032746;28;20210;-69
2022/11/26 09:10:25;;;;;;;2.60;2.40;;;;;;;10.10;nan;-24099.28;5032264;28;20183;-69
2022/11/26 09:12:51;;;;;;;4.40;3.53;;;;;;;9.47;nan;-24081.63;5032018;28;20252;-68
2022/11/26 09:15:16;;;;;;;5.87;2.90;;;;;;;9.90;nan;-24093.47;5032048;28;20642;-68
2022/11/26 09:17:42;;;;;;;4.03;3.13;;;;;;;10.11;nan;-24099.41;5031844;28;20566;-68
2022/11/26 09:20:08;;;;;;;3.80;2.70;;;;;;;9.30;nan;-24076.81;5031651;28;20676;-69
2022/11/26 09:22:34;;;;;;;4.90;2.97;;;;;;;10.13;nan;-24099.97;5032110;28;20198;-69
2022/11/26 09:24:59;;;;;;;3.55;2.80;;;;;;;10.65;nan;-24114.53;5031923;28;20178;-69
2022/11/26 09:27:25;;;;;;;4.05;2.95;;;;;;;10.46;nan;-24109.16;5032428;28;20187;-69
2022/11/26 09:29:50;;;;;;;4.27;2.63;;;;;;;10.47;nan;-24109.59;5031698;28;20179;-69
2022/11/26 09:32:16;;;;;;;5.57;3.47;;;;;;;10.80;nan;-24118.63;5031776;28;20338;-69
2022/11/26 09:34:41;;;;;;;6.68;3.60;;;;;;;10.76;nan;-24117.47;5030246;28;20357;-69
2022/11/26 09:37:07;;;;;;;5.72;2.92;;;;;;;10.70;nan;-24115.94;5030865;28;20175;-69
2022/11/26 09:39:32;;;;;;;5.20;3.42;;;;;;;10.67;nan;-24115.09;5032297;28;20536;-69
2022/11/26 09:42:04;;;;;;;4.93;2.75;;;;;;;11.20;nan;-24129.88;5031791;28;20163;-69
2022/11/26 09:44:39;;;;;;;4.10;2.70;;;;;;;10.87;nan;-24120.59;5031807;28;20164;-70
2022/11/26 09:47:21;;;;;;;3.20;2.38;;;;;;;10.93;nan;-24122.41;5031272;28;20543;-70
2022/11/26 09:49:52;;;;;;;4.65;2.90;;;;;;;10.81;nan;-24119.03;5031525;28;20179;-70
2022/11/26 09:52:20;;;;;;;3.47;2.50;;;;;;;10.78;nan;-24118.03;5033077;28;20638;-70
2022/11/26 09:54:48;;;;;;;3.17;2.38;;;;;;;11.00;nan;-24124.25;5030144;28;20276;-69
2022/11/26 09:57:42;;;;;;;5.35;2.25;;;;;;;10.89;nan;-24121.28;5031676;28;20229;-69
2022/11/26 10:00:28;;;;;;;3.85;2.67;;;;;;;11.30;nan;-24132.56;5031720;28;20207;-63
2022/11/26 10:02:56;;;;;;;4.05;2.35;;;;;;;11.28;nan;-24132.16;5011594;28;20227;-69
2022/11/26 10:05:38;;;;;;;3.83;2.53;;;;;;;11.39;nan;-24135.25;5009947;28;20699;-70
2022/11/26 10:08:14;;;;;;;2.30;2.10;;;;;;;11.44;nan;-24136.50;5012105;28;20160;-69
2022/11/26 10:11:07;;;;;;;2.92;2.47;;;;;;;11.47;nan;-24137.50;5011985;28;20175;-69
2022/11/26 10:14:06;;;;;;;3.50;2.30;;;;;;;11.61;nan;-24141.16;5011835;28;20196;-69
2022/11/26 10:16:54;;;;;;;3.08;2.33;;;;;;;11.72;nan;-24144.25;5011577;28;20710;-70
2022/11/26 10:19:59;;;;;;;5.68;2.80;;;;;;;11.76;nan;-24145.41;5011826;28;20647;-70
2022/11/26 10:22:29;;;;;;;3.33;2.70;;;;;;;11.70;nan;-24143.69;4971712;28;20338;-70
2022/11/26 10:24:58;;;;;;;5.07;2.72;;;;;;;11.98;nan;-24151.59;5011492;28;20168;-69
2022/11/26 10:27:29;;;;;;;3.90;2.70;;;;;;;11.99;nan;-24151.72;5011695;28;20610;-69
2022/11/26 10:29:59;;;;;;;3.53;2.40;;;;;;;11.76;nan;-24145.41;5011870;28;20176;-69
2022/11/26 10:32:37;;;;;;;3.70;2.70;;;;;;;11.55;nan;-24139.47;5011032;28;20160;-69
2022/11/26 10:35:03;;;;;;;3.45;2.40;;;;;;;11.66;nan;-24142.72;5011266;28;20168;-69
2022/11/26 10:37:29;;;;;;;3.47;2.50;;;;;;;11.90;nan;-24149.34;5010772;28;20168;-69
2022/11/26 10:40:23;;;;;;;4.18;2.28;;;;;;;12.15;nan;-24156.38;5011759;28;20250;-69
2022/11/26 10:43:07;;;;;;;4.65;2.53;;;;;;;12.09;nan;-24154.69;5011325;28;20653;-69
2022/11/26 10:45:42;;;;;;;4.65;2.47;;;;;;;11.88;nan;-24148.78;5011662;28;20251;-69
2022/11/26 10:48:30;;;;;;;4.93;2.58;;;;;;;12.12;nan;-24155.38;5015009;28;20250;-68
2022/11/26 10:51:24;;;;;;;3.75;2.50;;;;;;;12.17;nan;-24156.94;5014376;28;20164;-69
2022/11/26 10:53:54;;;;;;;4.55;2.53;;;;;;;12.39;nan;-24163.13;5014629;28;20257;-69
2022/11/26 10:56:24;;;;;;;4.93;2.85;;;;;;;12.26;nan;-24159.34;5013582;28;20172;-69
2022/11/26 10:58:52;;;;;;;4.15;2.75;;;;;;;12.47;nan;-24165.09;5015056;28;20556;-69
2022/11/26 11:01:18;;;;;;;5.97;2.90;;;;;;;12.23;nan;-24158.63;5014338;28;20215;-69
2022/11/26 11:03:52;;;;;;;5.05;2.63;;;;;;;12.37;nan;-24162.56;5014509;28;20184;-69
2022/11/26 11:06:17;;;;;;;5.88;2.65;;;;;;;12.53;nan;-24166.94;5014711;28;20192;-69
2022/11/26 11:08:44;;;;;;;4.45;2.30;;;;;;;12.52;nan;-24166.66;5015096;28;20275;-69
2022/11/26 11:11:27;;;;;;;3.33;2.58;;;;;;;12.60;nan;-24168.75;5015000;28;20164;-69
2022/11/26 11:13:53;;;;;;;3.63;2.35;;;;;;;12.44;nan;-24164.41;5014632;28;20690;-69
2022/11/26 11:16:36;;;;;;;4.10;2.33;;;;;;;12.07;nan;-24154.00;5013085;28;20179;-68
2022/11/26 11:19:10;;;;;;;3.05;1.85;;;;;;;12.54;nan;-24167.06;5014412;28;20255;-68
2022/11/26 11:21:38;;;;;;;3.83;2.65;;;;;;;12.65;nan;-24170.16;5014062;28;20251;-69
2022/11/26 11:24:17;;;;;;;3.33;2.10;;;;;;;12.93;nan;-24178.03;5032014;28;20184;-69
2022/11/26 11:26:45;;;;;;;2.53;1.88;;;;;;;12.47;nan;-24165.25;5033943;28;20183;-68
2022/11/26 11:29:31;;;;;;;3.00;2.10;;;;;;;12.12;nan;-24155.53;5034152;28;20638;-69
2022/11/26 11:31:58;;;;;;;3.55;2.25;;;;;;;11.89;nan;-24149.19;5034078;28;20156;-69
2022/11/26 11:34:38;;;;;;;3.47;2.30;;;;;;;12.69;nan;-24171.44;5033834;28;20203;-70
2022/11/26 11:37:12;;;;;;;2.47;2.10;;;;;;;12.44;nan;-24164.41;5033805;28;20224;-70
2022/11/26 11:39:38;;;;;;;3.03;2.00;;;;;;;12.44;nan;-24164.25;5034045;28;20286;-70
2022/11/26 11:42:16;;;;;;;3.40;2.13;;;;;;;12.71;nan;-24172.00;5033936;28;20708;-69
2022/11/26 11:44:49;;;;;;;3.58;2.28;;;;;;;12.66;nan;-24170.44;5033963;28;20171;-69
2022/11/26 11:47:27;;;;;;;4.47;2.50;;;;;;;12.78;nan;-24173.81;5033731;28;20175;-69
2022/11/26 11:50:15;;;;;;;3.42;2.72;;;;;;;12.94;nan;-24178.31;5033809;28;20179;-69
2022/11/26 11:52:54;;;;;;;2.75;2.40;;;;;;;12.93;nan;-24177.91;5033387;28;20565;-69
2022/11/26 11:55:45;;;;;;;3.53;2.08;;;;;;;12.57;nan;-24167.91;5033856;28;20591;-69
2022/11/26 11:58:24;;;;;;;4.45;2.70;;;;;;;12.98;nan;-24179.44;5025182;28;20203;-69